PWSweather.com
Personal Weather Stations
Station Observations
KOMOKA
Komoka Village, Komoka, ON N0L IRO

Komoka VillageKomoka, ON N0L IRO

Lat: 42.9542444, Lon: -81.4348861

Elevation: 805

Station Type: Davis Vantage Pro 2

Latest ConditionsUpdated 11:36:41 AM EDT Sunday, Apr 19, 2015
Currently Today's Max Today's Min Today's Average
Temperature 56.1°F13.4°C 56.1°F13.4°C 43.2°F6.2°C 46.8°F8.2°C
Dew Point 37.8°F3.2°C 37.9°F3.3°C 30.0°F-1.1°C 33.1°F0.6°C
Winds 7.0 mph E11.3 kmh E 8.0 mph E12.9 kmh E - 4.7 mph 7.6 kmh
Wind Gusts 16.0 mph25.7 kmh 23.0 mph37.0 kmh - -
Humidity 50% 65% 50% 59%
Pressure 30.01 in1016.3 mb 30.16 in1021.3 mb 30.01 in1016.3 mb -
Hour Temp Dew Point Humidity Winds Wind Gusts Pressure Precip Precip Rate Daily Precip Total
11:36 AM 56.1°F13.4°C 37.8°F3.2°C 50% 7.0 mph E11.3 kmh E 16.0 mph25.7 kmh 30.01 in1016.3 mb 0.00 in0.0 mm 0.00 in0.0 mm 0.00 in0.0 mm
11:29 AM 55.8°F13.2°C 37.9°F3.3°C 51% 8.0 mph E12.9 kmh E 21.0 mph33.8 kmh 30.02 in1016.6 mb 0.00 in0.0 mm 0.00 in0.0 mm 0.00 in0.0 mm
11:22 AM 55.6°F13.1°C 37.6°F3.1°C 51% 8.0 mph E12.9 kmh E 19.0 mph30.6 kmh 30.03 in1016.9 mb 0.00 in0.0 mm 0.00 in0.0 mm 0.00 in0.0 mm
11:15 AM 55.2°F12.9°C 36.9°F2.7°C 50% 7.0 mph E11.3 kmh E 19.0 mph30.6 kmh 30.03 in1016.9 mb 0.00 in0.0 mm 0.00 in0.0 mm 0.00 in0.0 mm
11:08 AM 54.5°F12.5°C 36.7°F2.6°C 51% 8.0 mph E12.9 kmh E 23.0 mph37.0 kmh 30.03 in1016.9 mb 0.00 in0.0 mm 0.00 in0.0 mm 0.00 in0.0 mm
11:01 AM 54.3°F12.4°C 37.6°F3.1°C 53% 7.0 mph E11.3 kmh E 19.0 mph30.6 kmh 30.04 in1017.3 mb 0.00 in0.0 mm 0.00 in0.0 mm 0.00 in0.0 mm
10:54 AM 54.0°F12.2°C 37.2°F2.9°C 53% 8.0 mph E12.9 kmh E 19.0 mph30.6 kmh 30.04 in1017.3 mb 0.00 in0.0 mm 0.00 in0.0 mm 0.00 in0.0 mm
10:47 AM 54.0°F12.2°C 37.2°F2.9°C 53% 7.0 mph E11.3 kmh E 13.0 mph20.9 kmh 30.04 in1017.3 mb 0.00 in0.0 mm 0.00 in0.0 mm 0.00 in0.0 mm
10:40 AM 53.4°F11.9°C 36.3°F2.4°C 52% 8.0 mph E12.9 kmh E 16.0 mph25.7 kmh 30.04 in1017.3 mb 0.00 in0.0 mm 0.00 in0.0 mm 0.00 in0.0 mm
10:33 AM 53.2°F11.8°C 36.1°F2.3°C 52% 7.0 mph E11.3 kmh E 17.0 mph27.4 kmh 30.05 in1017.6 mb 0.00 in0.0 mm 0.00 in0.0 mm 0.00 in0.0 mm
10:26 AM 52.5°F11.4°C 36.5°F2.5°C 54% 7.0 mph E11.3 kmh E 16.0 mph25.7 kmh 30.05 in1017.6 mb 0.00 in0.0 mm 0.00 in0.0 mm 0.00 in0.0 mm
10:19 AM 51.8°F11.0°C 37.0°F2.8°C 57% 7.0 mph E11.3 kmh E 16.0 mph25.7 kmh 30.06 in1017.9 mb 0.00 in0.0 mm 0.00 in0.0 mm 0.00 in0.0 mm
10:12 AM 51.3°F10.7°C 36.0°F2.2°C 56% 7.0 mph E11.3 kmh E 17.0 mph27.4 kmh 30.06 in1017.9 mb 0.00 in0.0 mm 0.00 in0.0 mm 0.00 in0.0 mm
10:05 AM 50.9°F10.5°C 35.8°F2.1°C 56% 7.0 mph E11.3 kmh E 17.0 mph27.4 kmh 30.07 in1018.3 mb 0.00 in0.0 mm 0.00 in0.0 mm 0.00 in0.0 mm
09:58 AM 50.9°F10.5°C 36.1°F2.3°C 57% 7.0 mph E11.3 kmh E 15.0 mph24.1 kmh 30.07 in1018.3 mb 0.00 in0.0 mm 0.00 in0.0 mm 0.00 in0.0 mm
09:51 AM 50.7°F10.4°C 35.2°F1.8°C 55% 7.0 mph E11.3 kmh E 15.0 mph24.1 kmh 30.08 in1018.6 mb 0.00 in0.0 mm 0.00 in0.0 mm 0.00 in0.0 mm
09:44 AM 50.7°F10.4°C 36.1°F2.3°C 57% 7.0 mph E11.3 kmh E 16.0 mph25.7 kmh 30.09 in1019.0 mb 0.00 in0.0 mm 0.00 in0.0 mm 0.00 in0.0 mm
09:37 AM 50.5°F10.3°C 35.4°F1.9°C 56% 5.0 mph E8.0 kmh E 15.0 mph24.1 kmh 30.09 in1019.0 mb 0.00 in0.0 mm 0.00 in0.0 mm 0.00 in0.0 mm
09:30 AM 50.2°F10.1°C 36.5°F2.5°C 59% 4.0 mph E6.4 kmh E 15.0 mph24.1 kmh 30.09 in1019.0 mb 0.00 in0.0 mm 0.00 in0.0 mm 0.00 in0.0 mm
09:23 AM 49.5°F9.7°C 36.1°F2.3°C 60% 5.0 mph E8.0 kmh E 17.0 mph27.4 kmh 30.10 in1019.3 mb 0.00 in0.0 mm 0.00 in0.0 mm 0.00 in0.0 mm
09:16 AM 48.7°F9.3°C 35.4°F1.9°C 60% 7.0 mph E11.3 kmh E 17.0 mph27.4 kmh 30.10 in1019.3 mb 0.00 in0.0 mm 0.00 in0.0 mm 0.00 in0.0 mm
09:09 AM 48.4°F9.1°C 34.7°F1.5°C 59% 7.0 mph E11.3 kmh E 19.0 mph30.6 kmh 30.10 in1019.3 mb 0.00 in0.0 mm 0.00 in0.0 mm 0.00 in0.0 mm
09:02 AM 48.2°F9.0°C 34.5°F1.4°C 59% 7.0 mph E11.3 kmh E 19.0 mph30.6 kmh 30.11 in1019.6 mb 0.00 in0.0 mm 0.00 in0.0 mm 0.00 in0.0 mm
08:55 AM 47.7°F8.7°C 34.9°F1.6°C 61% 5.0 mph E8.0 kmh E 13.0 mph20.9 kmh 30.11 in1019.6 mb 0.00 in0.0 mm 0.00 in0.0 mm 0.00 in0.0 mm
08:48 AM 47.1°F8.4°C 34.9°F1.6°C 62% 5.0 mph E8.0 kmh E 15.0 mph24.1 kmh 30.11 in1019.6 mb 0.00 in0.0 mm 0.00 in0.0 mm 0.00 in0.0 mm
08:41 AM 46.8°F8.2°C 34.0°F1.1°C 61% 7.0 mph E11.3 kmh E 15.0 mph24.1 kmh 30.12 in1020.0 mb 0.00 in0.0 mm 0.00 in0.0 mm 0.00 in0.0 mm
08:34 AM 46.2°F7.9°C 34.0°F1.1°C 62% 8.0 mph E12.9 kmh E 17.0 mph27.4 kmh 30.13 in1020.3 mb 0.00 in0.0 mm 0.00 in0.0 mm 0.00 in0.0 mm
08:27 AM 46.0°F7.8°C 33.8°F1.0°C 62% 8.0 mph E12.9 kmh E 19.0 mph30.6 kmh 30.13 in1020.3 mb 0.00 in0.0 mm 0.00 in0.0 mm 0.00 in0.0 mm
08:20 AM 46.0°F7.8°C 33.3°F0.7°C 61% 8.0 mph E12.9 kmh E 16.0 mph25.7 kmh 30.13 in1020.3 mb 0.00 in0.0 mm 0.00 in0.0 mm 0.00 in0.0 mm
08:13 AM 46.0°F7.8°C 33.6°F0.9°C 62% 7.0 mph E11.3 kmh E 16.0 mph25.7 kmh 30.13 in1020.3 mb 0.00 in0.0 mm 0.00 in0.0 mm 0.00 in0.0 mm
08:06 AM 45.9°F7.7°C 33.4°F0.8°C 62% 7.0 mph E11.3 kmh E 19.0 mph30.6 kmh 30.13 in1020.3 mb 0.00 in0.0 mm 0.00 in0.0 mm 0.00 in0.0 mm
07:59 AM 45.3°F7.4°C 33.4°F0.8°C 63% 7.0 mph E11.3 kmh E 20.0 mph32.2 kmh 30.13 in1020.3 mb 0.00 in0.0 mm 0.00 in0.0 mm 0.00 in0.0 mm
07:52 AM 44.8°F7.1°C 33.3°F0.7°C 64% 7.0 mph E11.3 kmh E 17.0 mph27.4 kmh 30.13 in1020.3 mb 0.00 in0.0 mm 0.00 in0.0 mm 0.00 in0.0 mm
07:45 AM 44.1°F6.7°C 33.1°F0.6°C 65% 7.0 mph E11.3 kmh E 16.0 mph25.7 kmh 30.12 in1020.0 mb 0.00 in0.0 mm 0.00 in0.0 mm 0.00 in0.0 mm
07:38 AM 43.5°F6.4°C 32.5°F0.3°C 65% 7.0 mph E11.3 kmh E 16.0 mph25.7 kmh 30.13 in1020.3 mb 0.00 in0.0 mm 0.00 in0.0 mm 0.00 in0.0 mm
07:31 AM 43.3°F6.3°C 32.4°F0.2°C 65% 7.0 mph E11.3 kmh E 13.0 mph20.9 kmh 30.12 in1020.0 mb 0.00 in0.0 mm 0.00 in0.0 mm 0.00 in0.0 mm
07:24 AM 43.2°F6.2°C 32.2°F0.1°C 65% 5.0 mph E8.0 kmh E 15.0 mph24.1 kmh 30.13 in1020.3 mb 0.00 in0.0 mm 0.00 in0.0 mm 0.00 in0.0 mm
07:17 AM 43.2°F6.2°C 32.2°F0.1°C 65% 4.0 mph E6.4 kmh E 12.0 mph19.3 kmh 30.13 in1020.3 mb 0.00 in0.0 mm 0.00 in0.0 mm 0.00 in0.0 mm
07:10 AM 43.2°F6.2°C 31.8°F-0.1°C 64% 4.0 mph E6.4 kmh E 12.0 mph19.3 kmh 30.12 in1020.0 mb 0.00 in0.0 mm 0.00 in0.0 mm 0.00 in0.0 mm
07:03 AM 43.3°F6.3°C 31.6°F-0.2°C 63% 5.0 mph E8.0 kmh E 15.0 mph24.1 kmh 30.12 in1020.0 mb 0.00 in0.0 mm 0.00 in0.0 mm 0.00 in0.0 mm
06:56 AM 43.3°F6.3°C 31.6°F-0.2°C 63% 5.0 mph E8.0 kmh E 15.0 mph24.1 kmh 30.12 in1020.0 mb 0.00 in0.0 mm 0.00 in0.0 mm 0.00 in0.0 mm
06:49 AM 43.5°F6.4°C 31.5°F-0.3°C 62% 5.0 mph E8.0 kmh E 15.0 mph24.1 kmh 30.12 in1020.0 mb 0.00 in0.0 mm 0.00 in0.0 mm 0.00 in0.0 mm
06:42 AM 43.5°F6.4°C 31.1°F-0.5°C 61% 5.0 mph E8.0 kmh E 16.0 mph25.7 kmh 30.12 in1020.0 mb 0.00 in0.0 mm 0.00 in0.0 mm 0.00 in0.0 mm
06:35 AM 43.7°F6.5°C 31.1°F-0.5°C 61% 5.0 mph E8.0 kmh E 16.0 mph25.7 kmh 30.12 in1020.0 mb 0.00 in0.0 mm 0.00 in0.0 mm 0.00 in0.0 mm
06:28 AM 43.9°F6.6°C 30.9°F-0.6°C 60% 4.0 mph E6.4 kmh E 9.0 mph14.5 kmh 30.12 in1020.0 mb 0.00 in0.0 mm 0.00 in0.0 mm 0.00 in0.0 mm
06:21 AM 44.1°F6.7°C 31.1°F-0.5°C 60% 4.0 mph E6.4 kmh E 13.0 mph20.9 kmh 30.12 in1020.0 mb 0.00 in0.0 mm 0.00 in0.0 mm 0.00 in0.0 mm
06:14 AM 44.2°F6.8°C 30.9°F-0.6°C 59% 4.0 mph E6.4 kmh E 12.0 mph19.3 kmh 30.12 in1020.0 mb 0.00 in0.0 mm 0.00 in0.0 mm 0.00 in0.0 mm
06:07 AM 44.4°F6.9°C 30.9°F-0.6°C 59% 5.0 mph E8.0 kmh E 17.0 mph27.4 kmh 30.12 in1020.0 mb 0.00 in0.0 mm 0.00 in0.0 mm 0.00 in0.0 mm
06:00 AM 44.4°F6.9°C 30.6°F-0.8°C 58% 5.0 mph E8.0 kmh E 19.0 mph30.6 kmh 30.11 in1019.6 mb 0.00 in0.0 mm 0.00 in0.0 mm 0.00 in0.0 mm
05:53 AM 44.6°F7.0°C 30.7°F-0.7°C 58% 5.0 mph E8.0 kmh E 19.0 mph30.6 kmh 30.11 in1019.6 mb 0.00 in0.0 mm 0.00 in0.0 mm 0.00 in0.0 mm
05:46 AM 44.8°F7.1°C 30.7°F-0.7°C 58% 5.0 mph E8.0 kmh E 16.0 mph25.7 kmh 30.11 in1019.6 mb 0.00 in0.0 mm 0.00 in0.0 mm 0.00 in0.0 mm
05:39 AM 44.8°F7.1°C 30.4°F-0.9°C 57% 4.0 mph E6.4 kmh E 16.0 mph25.7 kmh 30.11 in1019.6 mb 0.00 in0.0 mm 0.00 in0.0 mm 0.00 in0.0 mm
05:32 AM 45.0°F7.2°C 30.7°F-0.7°C 57% 4.0 mph E6.4 kmh E 9.0 mph14.5 kmh 30.12 in1020.0 mb 0.00 in0.0 mm 0.00 in0.0 mm 0.00 in0.0 mm
05:25 AM 45.1°F7.3°C 30.4°F-0.9°C 56% 5.0 mph E8.0 kmh E 13.0 mph20.9 kmh 30.12 in1020.0 mb 0.00 in0.0 mm 0.00 in0.0 mm 0.00 in0.0 mm
05:18 AM 45.1°F7.3°C 30.4°F-0.9°C 56% 5.0 mph E8.0 kmh E 15.0 mph24.1 kmh 30.12 in1020.0 mb 0.00 in0.0 mm 0.00 in0.0 mm 0.00 in0.0 mm
05:11 AM 45.1°F7.3°C 30.0°F-1.1°C 55% 5.0 mph E8.0 kmh E 12.0 mph19.3 kmh 30.12 in1020.0 mb 0.00 in0.0 mm 0.00 in0.0 mm 0.00 in0.0 mm
05:04 AM 45.3°F7.4°C 30.2°F-1.0°C 55% 5.0 mph E8.0 kmh E 16.0 mph25.7 kmh 30.12 in1020.0 mb 0.00 in0.0 mm 0.00 in0.0 mm 0.00 in0.0 mm
04:57 AM 45.3°F7.4°C 30.2°F-1.0°C 55% 5.0 mph E8.0 kmh E 13.0 mph20.9 kmh 30.12 in1020.0 mb 0.00 in0.0 mm 0.00 in0.0 mm 0.00 in0.0 mm
04:50 AM 45.3°F7.4°C 30.0°F-1.1°C 55% 4.0 mph E6.4 kmh E 13.0 mph20.9 kmh 30.12 in1020.0 mb 0.00 in0.0 mm 0.00 in0.0 mm 0.00 in0.0 mm
04:43 AM 45.3°F7.4°C 30.6°F-0.8°C 56% 4.0 mph E6.4 kmh E 16.0 mph25.7 kmh 30.12 in1020.0 mb 0.00 in0.0 mm 0.00 in0.0 mm 0.00 in0.0 mm
04:36 AM 45.5°F7.5°C 30.2°F-1.0°C 55% 5.0 mph E8.0 kmh E 16.0 mph25.7 kmh 30.13 in1020.3 mb 0.00 in0.0 mm 0.00 in0.0 mm 0.00 in0.0 mm
04:29 AM 45.5°F7.5°C 30.2°F-1.0°C 55% 5.0 mph E8.0 kmh E 12.0 mph19.3 kmh 30.13 in1020.3 mb 0.00 in0.0 mm 0.00 in0.0 mm 0.00 in0.0 mm
04:22 AM 45.3°F7.4°C 30.6°F-0.8°C 56% 4.0 mph E6.4 kmh E 12.0 mph19.3 kmh 30.13 in1020.3 mb 0.00 in0.0 mm 0.00 in0.0 mm 0.00 in0.0 mm
04:15 AM 45.1°F7.3°C 30.4°F-0.9°C 56% 3.0 mph E4.8 kmh E 9.0 mph14.5 kmh 30.13 in1020.3 mb 0.00 in0.0 mm 0.00 in0.0 mm 0.00 in0.0 mm
04:08 AM 45.1°F7.3°C 30.9°F-0.6°C 57% 4.0 mph E6.4 kmh E 13.0 mph20.9 kmh 30.13 in1020.3 mb 0.00 in0.0 mm 0.00 in0.0 mm 0.00 in0.0 mm
04:01 AM 45.1°F7.3°C 30.4°F-0.9°C 56% 4.0 mph E6.4 kmh E 13.0 mph20.9 kmh 30.12 in1020.0 mb 0.00 in0.0 mm 0.00 in0.0 mm 0.00 in0.0 mm
03:54 AM 45.0°F7.2°C 30.7°F-0.7°C 57% 4.0 mph E6.4 kmh E 8.0 mph12.9 kmh 30.13 in1020.3 mb 0.00 in0.0 mm 0.00 in0.0 mm 0.00 in0.0 mm
03:47 AM 45.0°F7.2°C 30.9°F-0.6°C 58% 3.0 mph E4.8 kmh E 9.0 mph14.5 kmh 30.12 in1020.0 mb 0.00 in0.0 mm 0.00 in0.0 mm 0.00 in0.0 mm
03:40 AM 45.0°F7.2°C 30.9°F-0.6°C 58% 3.0 mph E4.8 kmh E 8.0 mph12.9 kmh 30.12 in1020.0 mb 0.00 in0.0 mm 0.00 in0.0 mm 0.00 in0.0 mm
03:33 AM 45.0°F7.2°C 31.5°F-0.3°C 59% 3.0 mph E4.8 kmh E 7.0 mph11.3 kmh 30.12 in1020.0 mb 0.00 in0.0 mm 0.00 in0.0 mm 0.00 in0.0 mm
03:26 AM 45.1°F7.3°C 31.6°F-0.2°C 59% 4.0 mph E6.4 kmh E 8.0 mph12.9 kmh 30.12 in1020.0 mb 0.00 in0.0 mm 0.00 in0.0 mm 0.00 in0.0 mm
03:19 AM 45.0°F7.2°C 31.5°F-0.3°C 59% 3.0 mph ENE4.8 kmh ENE 8.0 mph12.9 kmh 30.12 in1020.0 mb 0.00 in0.0 mm 0.00 in0.0 mm 0.00 in0.0 mm
03:12 AM 45.0°F7.2°C 31.5°F-0.3°C 59% 3.0 mph ENE4.8 kmh ENE 8.0 mph12.9 kmh 30.12 in1020.0 mb 0.00 in0.0 mm 0.00 in0.0 mm 0.00 in0.0 mm
03:05 AM 45.0°F7.2°C 31.5°F-0.3°C 59% 3.0 mph E4.8 kmh E 8.0 mph12.9 kmh 30.13 in1020.3 mb 0.00 in0.0 mm 0.00 in0.0 mm 0.00 in0.0 mm
02:58 AM 45.0°F7.2°C 31.5°F-0.3°C 59% 3.0 mph E4.8 kmh E 8.0 mph12.9 kmh 30.13 in1020.3 mb 0.00 in0.0 mm 0.00 in0.0 mm 0.00 in0.0 mm
02:51 AM 45.1°F7.3°C 32.0°F0.0°C 60% 3.0 mph ENE4.8 kmh ENE 8.0 mph12.9 kmh 30.13 in1020.3 mb 0.00 in0.0 mm 0.00 in0.0 mm 0.00 in0.0 mm
02:44 AM 45.1°F7.3°C 32.0°F0.0°C 60% 3.0 mph ENE4.8 kmh ENE 7.0 mph11.3 kmh 30.13 in1020.3 mb 0.00 in0.0 mm 0.00 in0.0 mm 0.00 in0.0 mm
02:37 AM 45.3°F7.4°C 32.2°F0.1°C 60% 3.0 mph ENE4.8 kmh ENE 9.0 mph14.5 kmh 30.13 in1020.3 mb 0.00 in0.0 mm 0.00 in0.0 mm 0.00 in0.0 mm
02:30 AM 45.3°F7.4°C 32.4°F0.2°C 60% 3.0 mph ENE4.8 kmh ENE 13.0 mph20.9 kmh 30.14 in1020.7 mb 0.00 in0.0 mm 0.00 in0.0 mm 0.00 in0.0 mm
02:23 AM 45.5°F7.5°C 32.4°F0.2°C 60% 4.0 mph ENE6.4 kmh ENE 9.0 mph14.5 kmh 30.14 in1020.7 mb 0.00 in0.0 mm 0.00 in0.0 mm 0.00 in0.0 mm
02:16 AM 45.7°F7.6°C 32.5°F0.3°C 60% 4.0 mph NE6.4 kmh NE 12.0 mph19.3 kmh 30.13 in1020.3 mb 0.00 in0.0 mm 0.00 in0.0 mm 0.00 in0.0 mm
02:09 AM 45.7°F7.6°C 32.5°F0.3°C 60% 4.0 mph NE6.4 kmh NE 11.0 mph17.7 kmh 30.13 in1020.3 mb 0.00 in0.0 mm 0.00 in0.0 mm 0.00 in0.0 mm
02:02 AM 45.7°F7.6°C 33.1°F0.6°C 61% 4.0 mph NE6.4 kmh NE 8.0 mph12.9 kmh 30.14 in1020.7 mb 0.00 in0.0 mm 0.00 in0.0 mm 0.00 in0.0 mm
01:55 AM 45.9°F7.7°C 33.1°F0.6°C 61% 3.0 mph NE4.8 kmh NE 9.0 mph14.5 kmh 30.15 in1021.0 mb 0.00 in0.0 mm 0.00 in0.0 mm 0.00 in0.0 mm
01:48 AM 45.9°F7.7°C 33.1°F0.6°C 61% 4.0 mph NE6.4 kmh NE 9.0 mph14.5 kmh 30.15 in1021.0 mb 0.00 in0.0 mm 0.00 in0.0 mm 0.00 in0.0 mm
01:41 AM 45.9°F7.7°C 33.4°F0.8°C 62% 4.0 mph NE6.4 kmh NE 12.0 mph19.3 kmh 30.15 in1021.0 mb 0.00 in0.0 mm 0.00 in0.0 mm 0.00 in0.0 mm
01:34 AM 45.7°F7.6°C 33.4°F0.8°C 62% 3.0 mph ENE4.8 kmh ENE 12.0 mph19.3 kmh 30.15 in1021.0 mb 0.00 in0.0 mm 0.00 in0.0 mm 0.00 in0.0 mm
01:27 AM 45.9°F7.7°C 33.4°F0.8°C 62% 3.0 mph ENE4.8 kmh ENE 8.0 mph12.9 kmh 30.16 in1021.3 mb 0.00 in0.0 mm 0.00 in0.0 mm 0.00 in0.0 mm
01:20 AM 45.9°F7.7°C 34.0°F1.1°C 63% 1.0 mph NE1.6 kmh NE 7.0 mph11.3 kmh 30.15 in1021.0 mb 0.00 in0.0 mm 0.00 in0.0 mm 0.00 in0.0 mm
01:13 AM 45.9°F7.7°C 34.0°F1.1°C 63% 1.0 mph NE1.6 kmh NE 5.0 mph8.0 kmh 30.15 in1021.0 mb 0.00 in0.0 mm 0.00 in0.0 mm 0.00 in0.0 mm
01:06 AM 45.9°F7.7°C 34.0°F1.1°C 63% 3.0 mph NE4.8 kmh NE 8.0 mph12.9 kmh 30.15 in1021.0 mb 0.00 in0.0 mm 0.00 in0.0 mm 0.00 in0.0 mm
12:59 AM 45.7°F7.6°C 33.8°F1.0°C 63% 3.0 mph NE4.8 kmh NE 9.0 mph14.5 kmh 30.16 in1021.3 mb 0.00 in0.0 mm 0.00 in0.0 mm 0.00 in0.0 mm
12:52 AM 45.7°F7.6°C 33.8°F1.0°C 63% 1.0 mph NE1.6 kmh NE 9.0 mph14.5 kmh 30.15 in1021.0 mb 0.00 in0.0 mm 0.00 in0.0 mm 0.00 in0.0 mm
12:45 AM 45.9°F7.7°C 34.0°F1.1°C 63% Calm Calm 3.0 mph4.8 kmh 30.16 in1021.3 mb 0.00 in0.0 mm 0.00 in0.0 mm 0.00 in0.0 mm
12:38 AM 46.2°F7.9°C 34.0°F1.1°C 62% Calm Calm 5.0 mph8.0 kmh 30.16 in1021.3 mb 0.00 in0.0 mm 0.00 in0.0 mm 0.00 in0.0 mm
12:31 AM 46.6°F8.1°C 33.8°F1.0°C 61% 1.0 mph NE1.6 kmh NE 5.0 mph8.0 kmh 30.16 in1021.3 mb 0.00 in0.0 mm 0.00 in0.0 mm 0.00 in0.0 mm
12:24 AM 46.8°F8.2°C 34.5°F1.4°C 62% 1.0 mph NE1.6 kmh NE 5.0 mph8.0 kmh 30.16 in1021.3 mb 0.00 in0.0 mm 0.00 in0.0 mm 0.00 in0.0 mm
12:17 AM 46.9°F8.3°C 34.7°F1.5°C 62% 1.0 mph NE1.6 kmh NE 5.0 mph8.0 kmh 30.15 in1021.0 mb 0.00 in0.0 mm 0.00 in0.0 mm 0.00 in0.0 mm
12:10 AM 47.1°F8.4°C 34.3°F1.3°C 61% 1.0 mph NE1.6 kmh NE 5.0 mph8.0 kmh 30.15 in1021.0 mb 0.00 in0.0 mm 0.00 in0.0 mm 0.00 in0.0 mm
12:03 AM 47.5°F8.6°C 34.7°F1.5°C 61% 1.0 mph NE1.6 kmh NE 8.0 mph12.9 kmh 30.15 in1021.0 mb 0.00 in0.0 mm 0.00 in0.0 mm 0.00 in0.0 mm